Bishop, Texas
Current Conditions -  °F | °C
As of 8:56 AM on Friday 19 Dec 2014 (Local Time) from KNQI Reporting Station
Overcast Overcast  
Wind Chill: 62°   Ceiling: 600
Heat Index: 62°   Visibility: 10mi
Dew Point: 61°   Wind: 16mph
Humidity: 96%   Direction: 340°NNW
Pressure: 30.01"   Gusts: NA
Location:  27.59°N, 97.8°W
Report Text: KNQI 191456Z 34014KT 10SM BKN006 OVC012 17/16 A3001 RMK AO2 SLP160 60000 T01670161 53023
Loading
Personal Weather Stations






























Interactive Weather Map New forecast layout! Learn more

10-Day Weather Forecast

Advertisements
Track Severe Weather on mobile